sensor_id;sensor_type;location;lat;lon;timestamp;temperature;humidity
7970;DHT22;4030;52.362;9.206;2022-08-14T00:01:33;28.10;43.30
7970;DHT22;4030;52.362;9.206;2022-08-14T00:03:59;27.90;43.30
7970;DHT22;4030;52.362;9.206;2022-08-14T00:11:17;27.90;43.50
7970;DHT22;4030;52.362;9.206;2022-08-14T00:13:42;27.90;43.60
7970;DHT22;4030;52.362;9.206;2022-08-14T00:16:08;27.80;43.60
7970;DHT22;4030;52.362;9.206;2022-08-14T00:18:39;27.80;43.60
7970;DHT22;4030;52.362;9.206;2022-08-14T00:21:06;27.80;43.80
7970;DHT22;4030;52.362;9.206;2022-08-14T00:30:53;27.70;43.90
7970;DHT22;4030;52.362;9.206;2022-08-14T00:33:22;27.60;44.00
7970;DHT22;4030;52.362;9.206;2022-08-14T00:35:49;27.60;44.10
7970;DHT22;4030;52.362;9.206;2022-08-14T00:38:16;27.60;44.10
7970;DHT22;4030;52.362;9.206;2022-08-14T00:40:42;27.50;44.20
7970;DHT22;4030;52.362;9.206;2022-08-14T00:43:08;27.40;44.20
7970;DHT22;4030;52.362;9.206;2022-08-14T00:45:34;27.50;44.30
7970;DHT22;4030;52.362;9.206;2022-08-14T00:48:00;27.30;44.30
7970;DHT22;4030;52.362;9.206;2022-08-14T00:50:26;27.30;44.40
7970;DHT22;4030;52.362;9.206;2022-08-14T00:52:56;27.40;44.50
7970;DHT22;4030;52.362;9.206;2022-08-14T00:55:25;27.30;44.60
7970;DHT22;4030;52.362;9.206;2022-08-14T00:57:52;27.30;44.60
7970;DHT22;4030;52.362;9.206;2022-08-14T01:00:38;27.20;44.70
7970;DHT22;4030;52.362;9.206;2022-08-14T01:03:06;27.30;44.80
7970;DHT22;4030;52.362;9.206;2022-08-14T01:05:33;27.30;44.90
7970;DHT22;4030;52.362;9.206;2022-08-14T01:07:59;27.20;44.90
7970;DHT22;4030;52.362;9.206;2022-08-14T01:10:27;27.20;45.10
7970;DHT22;4030;52.362;9.206;2022-08-14T01:13:19;27.10;45.20
7970;DHT22;4030;52.362;9.206;2022-08-14T01:15:50;27.10;45.20
7970;DHT22;4030;52.362;9.206;2022-08-14T01:18:18;27.10;45.30
7970;DHT22;4030;52.362;9.206;2022-08-14T01:21:04;27.00;45.30
7970;DHT22;4030;52.362;9.206;2022-08-14T01:23:52;27.10;45.50
7970;DHT22;4030;52.362;9.206;2022-08-14T01:26:20;27.00;45.60
7970;DHT22;4030;52.362;9.206;2022-08-14T01:28:51;27.00;45.60
7970;DHT22;4030;52.362;9.206;2022-08-14T01:31:40;27.00;45.80
7970;DHT22;4030;52.362;9.206;2022-08-14T01:34:16;26.90;45.70
7970;DHT22;4030;52.362;9.206;2022-08-14T01:36:45;27.00;45.90
7970;DHT22;4030;52.362;9.206;2022-08-14T01:39:13;26.90;45.90
7970;DHT22;4030;52.362;9.206;2022-08-14T01:41:45;26.90;46.00
7970;DHT22;4030;52.362;9.206;2022-08-14T01:44:21;26.80;46.00
7970;DHT22;4030;52.362;9.206;2022-08-14T01:46:49;26.80;46.00
7970;DHT22;4030;52.362;9.206;2022-08-14T01:49:19;26.80;46.10
7970;DHT22;4030;52.362;9.206;2022-08-14T01:51:46;26.70;46.10
7970;DHT22;4030;52.362;9.206;2022-08-14T01:54:16;26.70;46.30
7970;DHT22;4030;52.362;9.206;2022-08-14T01:56:50;26.60;46.20
7970;DHT22;4030;52.362;9.206;2022-08-14T02:01:45;26.60;46.40
7970;DHT22;4030;52.362;9.206;2022-08-14T02:06:38;26.60;46.60
7970;DHT22;4030;52.362;9.206;2022-08-14T02:09:04;26.50;46.50
7970;DHT22;4030;52.362;9.206;2022-08-14T02:11:31;26.50;46.60
7970;DHT22;4030;52.362;9.206;2022-08-14T02:14:01;26.50;46.60
7970;DHT22;4030;52.362;9.206;2022-08-14T02:16:31;26.50;46.70
7970;DHT22;4030;52.362;9.206;2022-08-14T02:19:04;26.50;46.80
7970;DHT22;4030;52.362;9.206;2022-08-14T02:21:31;26.50;46.80
7970;DHT22;4030;52.362;9.206;2022-08-14T02:23:59;26.40;46.80
7970;DHT22;4030;52.362;9.206;2022-08-14T02:26:31;26.40;46.90
7970;DHT22;4030;52.362;9.206;2022-08-14T02:29:02;26.30;46.90
7970;DHT22;4030;52.362;9.206;2022-08-14T02:31:32;26.20;47.00
7970;DHT22;4030;52.362;9.206;2022-08-14T02:34:03;26.30;47.10
7970;DHT22;4030;52.362;9.206;2022-08-14T02:36:31;26.10;47.10
7970;DHT22;4030;52.362;9.206;2022-08-14T02:43:50;26.20;47.30
7970;DHT22;4030;52.362;9.206;2022-08-14T02:46:16;26.20;47.40
7970;DHT22;4030;52.362;9.206;2022-08-14T02:48:42;26.10;47.40
7970;DHT22;4030;52.362;9.206;2022-08-14T02:51:11;26.10;47.40
7970;DHT22;4030;52.362;9.206;2022-08-14T02:53:43;26.10;47.50
7970;DHT22;4030;52.362;9.206;2022-08-14T02:56:14;26.10;47.60
7970;DHT22;4030;52.362;9.206;2022-08-14T02:58:43;26.00;47.60
7970;DHT22;4030;52.362;9.206;2022-08-14T03:01:14;26.00;47.70
7970;DHT22;4030;52.362;9.206;2022-08-14T03:03:42;26.00;47.70
7970;DHT22;4030;52.362;9.206;2022-08-14T03:06:09;25.80;47.70
7970;DHT22;4030;52.362;9.206;2022-08-14T03:08:38;26.00;47.90
7970;DHT22;4030;52.362;9.206;2022-08-14T03:11:06;26.00;48.00
7970;DHT22;4030;52.362;9.206;2022-08-14T03:13:36;25.90;48.00
7970;DHT22;4030;52.362;9.206;2022-08-14T03:16:05;25.90;48.00
7970;DHT22;4030;52.362;9.206;2022-08-14T03:18:33;25.80;48.00
7970;DHT22;4030;52.362;9.206;2022-08-14T03:21:05;25.80;48.10
7970;DHT22;4030;52.362;9.206;2022-08-14T03:23:32;25.80;48.10
7970;DHT22;4030;52.362;9.206;2022-08-14T03:28:27;25.60;48.10
7970;DHT22;4030;52.362;9.206;2022-08-14T03:30:55;25.80;48.20
7970;DHT22;4030;52.362;9.206;2022-08-14T03:33:22;25.80;48.30
7970;DHT22;4030;52.362;9.206;2022-08-14T03:35:47;25.70;48.30
7970;DHT22;4030;52.362;9.206;2022-08-14T03:38:13;25.70;48.30
7970;DHT22;4030;52.362;9.206;2022-08-14T03:40:40;25.60;48.30
7970;DHT22;4030;52.362;9.206;2022-08-14T03:43:06;25.70;48.50
7970;DHT22;4030;52.362;9.206;2022-08-14T03:45:35;25.60;48.40
7970;DHT22;4030;52.362;9.206;2022-08-14T03:48:14;25.70;48.60
7970;DHT22;4030;52.362;9.206;2022-08-14T03:50:48;25.60;48.60
7970;DHT22;4030;52.362;9.206;2022-08-14T03:53:18;25.60;48.70
7970;DHT22;4030;52.362;9.206;2022-08-14T03:55:44;25.50;48.70
7970;DHT22;4030;52.362;9.206;2022-08-14T04:00:38;25.60;48.80
7970;DHT22;4030;52.362;9.206;2022-08-14T04:03:07;25.40;48.80
7970;DHT22;4030;52.362;9.206;2022-08-14T04:05:35;25.40;48.90
7970;DHT22;4030;52.362;9.206;2022-08-14T04:08:08;25.40;49.00
7970;DHT22;4030;52.362;9.206;2022-08-14T04:10:33;25.40;49.00
7970;DHT22;4030;52.362;9.206;2022-08-14T04:13:03;25.40;49.00
7970;DHT22;4030;52.362;9.206;2022-08-14T04:15:32;25.40;49.10
7970;DHT22;4030;52.362;9.206;2022-08-14T04:18:04;25.30;49.10
7970;DHT22;4030;52.362;9.206;2022-08-14T04:20:35;25.30;49.20
7970;DHT22;4030;52.362;9.206;2022-08-14T04:23:02;25.30;49.20
7970;DHT22;4030;52.362;9.206;2022-08-14T04:25:32;25.30;49.40
7970;DHT22;4030;52.362;9.206;2022-08-14T04:28:04;25.30;49.40
7970;DHT22;4030;52.362;9.206;2022-08-14T04:30:32;25.10;49.30
7970;DHT22;4030;52.362;9.206;2022-08-14T04:33:04;25.20;49.50
7970;DHT22;4030;52.362;9.206;2022-08-14T04:35:34;25.20;49.50
7970;DHT22;4030;52.362;9.206;2022-08-14T04:38:05;25.20;49.50
7970;DHT22;4030;52.362;9.206;2022-08-14T04:40:50;25.10;49.60
7970;DHT22;4030;52.362;9.206;2022-08-14T04:43:34;25.00;49.60
7970;DHT22;4030;52.362;9.206;2022-08-14T04:46:02;25.10;49.70
7970;DHT22;4030;52.362;9.206;2022-08-14T04:50:54;25.10;49.70
7970;DHT22;4030;52.362;9.206;2022-08-14T04:53:26;25.00;49.70
7970;DHT22;4030;52.362;9.206;2022-08-14T04:55:53;24.90;49.80
7970;DHT22;4030;52.362;9.206;2022-08-14T04:58:25;25.00;49.90
7970;DHT22;4030;52.362;9.206;2022-08-14T05:00:54;25.00;50.00
7970;DHT22;4030;52.362;9.206;2022-08-14T05:03:24;25.00;50.10
7970;DHT22;4030;52.362;9.206;2022-08-14T05:05:56;25.00;50.20
7970;DHT22;4030;52.362;9.206;2022-08-14T05:08:23;25.00;50.30
7970;DHT22;4030;52.362;9.206;2022-08-14T05:10:55;25.00;50.30
7970;DHT22;4030;52.362;9.206;2022-08-14T05:13:24;25.00;50.40
7970;DHT22;4030;52.362;9.206;2022-08-14T05:15:53;25.10;50.50
7970;DHT22;4030;52.362;9.206;2022-08-14T05:18:23;24.90;50.50
7970;DHT22;4030;52.362;9.206;2022-08-14T05:20:52;24.90;50.40
7970;DHT22;4030;52.362;9.206;2022-08-14T05:23:22;24.90;50.50
7970;DHT22;4030;52.362;9.206;2022-08-14T05:25:54;24.90;50.60
7970;DHT22;4030;52.362;9.206;2022-08-14T05:28:27;24.90;50.70
7970;DHT22;4030;52.362;9.206;2022-08-14T05:30:56;24.90;50.80
7970;DHT22;4030;52.362;9.206;2022-08-14T05:33:25;24.90;50.80
7970;DHT22;4030;52.362;9.206;2022-08-14T05:35:53;24.80;50.90
7970;DHT22;4030;52.362;9.206;2022-08-14T05:38:27;24.90;51.00
7970;DHT22;4030;52.362;9.206;2022-08-14T05:43:24;24.80;51.10
7970;DHT22;4030;52.362;9.206;2022-08-14T05:45:50;24.90;51.30
7970;DHT22;4030;52.362;9.206;2022-08-14T05:58:03;24.80;51.60
7970;DHT22;4030;52.362;9.206;2022-08-14T06:00:35;24.80;51.60
7970;DHT22;4030;52.362;9.206;2022-08-14T06:03:05;25.00;51.80
7970;DHT22;4030;52.362;9.206;2022-08-14T06:05:33;24.90;51.80
7970;DHT22;4030;52.362;9.206;2022-08-14T06:10:27;24.90;52.00
7970;DHT22;4030;52.362;9.206;2022-08-14T06:17:51;25.00;52.50
7970;DHT22;4030;52.362;9.206;2022-08-14T06:20:18;25.00;52.70
7970;DHT22;4030;52.362;9.206;2022-08-14T06:22:45;24.80;52.50
7970;DHT22;4030;52.362;9.206;2022-08-14T06:25:13;25.10;52.80
7970;DHT22;4030;52.362;9.206;2022-08-14T06:27:44;24.90;52.80
7970;DHT22;4030;52.362;9.206;2022-08-14T06:30:14;25.10;52.90
7970;DHT22;4030;52.362;9.206;2022-08-14T06:32:42;25.10;53.00
7970;DHT22;4030;52.362;9.206;2022-08-14T06:35:09;25.20;53.00
7970;DHT22;4030;52.362;9.206;2022-08-14T06:40:15;25.20;53.00
7970;DHT22;4030;52.362;9.206;2022-08-14T06:45:12;25.30;53.00
7970;DHT22;4030;52.362;9.206;2022-08-14T06:47:39;25.30;52.80
7970;DHT22;4030;52.362;9.206;2022-08-14T06:50:08;25.30;52.40
7970;DHT22;4030;52.362;9.206;2022-08-14T06:55:03;25.40;52.60
7970;DHT22;4030;52.362;9.206;2022-08-14T06:57:37;25.40;52.90
7970;DHT22;4030;52.362;9.206;2022-08-14T07:00:10;25.50;53.30
7970;DHT22;4030;52.362;9.206;2022-08-14T07:02:39;25.30;53.00
7970;DHT22;4030;52.362;9.206;2022-08-14T07:10:56;25.50;53.00
7970;DHT22;4030;52.362;9.206;2022-08-14T07:15:53;25.70;53.50
7970;DHT22;4030;52.362;9.206;2022-08-14T07:18:31;25.70;53.70
7970;DHT22;4030;52.362;9.206;2022-08-14T07:20:59;25.80;53.80
7970;DHT22;4030;52.362;9.206;2022-08-14T07:23:26;25.80;53.70
7970;DHT22;4030;52.362;9.206;2022-08-14T07:25:55;25.90;53.50
7970;DHT22;4030;52.362;9.206;2022-08-14T07:28:30;25.90;53.60
7970;DHT22;4030;52.362;9.206;2022-08-14T07:31:00;26.10;53.80
7970;DHT22;4030;52.362;9.206;2022-08-14T07:33:30;26.00;53.80
7970;DHT22;4030;52.362;9.206;2022-08-14T07:36:02;26.10;53.90
7970;DHT22;4030;52.362;9.206;2022-08-14T07:38:30;26.10;53.90
7970;DHT22;4030;52.362;9.206;2022-08-14T07:40:56;26.20;54.00
7970;DHT22;4030;52.362;9.206;2022-08-14T07:43:22;26.20;54.00
7970;DHT22;4030;52.362;9.206;2022-08-14T07:45:47;26.40;54.20
7970;DHT22;4030;52.362;9.206;2022-08-14T07:50:39;26.40;54.00
7970;DHT22;4030;52.362;9.206;2022-08-14T07:53:05;26.40;53.90
7970;DHT22;4030;52.362;9.206;2022-08-14T07:57:57;26.60;53.90
7970;DHT22;4030;52.362;9.206;2022-08-14T08:00:24;26.60;53.80
7970;DHT22;4030;52.362;9.206;2022-08-14T08:02:51;26.70;53.90
7970;DHT22;4030;52.362;9.206;2022-08-14T08:05:23;26.80;53.90
7970;DHT22;4030;52.362;9.206;2022-08-14T08:07:49;26.90;53.90
7970;DHT22;4030;52.362;9.206;2022-08-14T08:10:21;27.00;53.90
7970;DHT22;4030;52.362;9.206;2022-08-14T08:13:09;27.00;53.90
7970;DHT22;4030;52.362;9.206;2022-08-14T08:15:41;27.00;53.80
7970;DHT22;4030;52.362;9.206;2022-08-14T08:18:11;27.20;53.90
7970;DHT22;4030;52.362;9.206;2022-08-14T08:20:43;27.20;53.80
7970;DHT22;4030;52.362;9.206;2022-08-14T08:23:11;27.30;53.90
7970;DHT22;4030;52.362;9.206;2022-08-14T08:25:39;27.40;53.80
7970;DHT22;4030;52.362;9.206;2022-08-14T08:28:26;27.60;54.00
7970;DHT22;4030;52.362;9.206;2022-08-14T08:31:02;27.60;53.80
7970;DHT22;4030;52.362;9.206;2022-08-14T08:33:31;27.70;53.80
7970;DHT22;4030;52.362;9.206;2022-08-14T08:36:04;27.80;53.80
7970;DHT22;4030;52.362;9.206;2022-08-14T08:38:31;27.80;53.60
7970;DHT22;4030;52.362;9.206;2022-08-14T08:40:59;27.90;53.70
7970;DHT22;4030;52.362;9.206;2022-08-14T08:43:31;28.00;53.60
7970;DHT22;4030;52.362;9.206;2022-08-14T08:46:00;27.90;53.50
7970;DHT22;4030;52.362;9.206;2022-08-14T08:48:47;28.10;53.40
7970;DHT22;4030;52.362;9.206;2022-08-14T08:51:31;28.20;53.30
7970;DHT22;4030;52.362;9.206;2022-08-14T08:56:40;28.40;53.30
7970;DHT22;4030;52.362;9.206;2022-08-14T08:59:19;28.50;53.20
7970;DHT22;4030;52.362;9.206;2022-08-14T09:01:48;28.60;53.00
7970;DHT22;4030;52.362;9.206;2022-08-14T09:04:21;28.70;52.90
7970;DHT22;4030;52.362;9.206;2022-08-14T09:06:47;28.70;52.70
7970;DHT22;4030;52.362;9.206;2022-08-14T09:09:33;28.80;52.60
7970;DHT22;4030;52.362;9.206;2022-08-14T09:12:00;28.90;52.50
7970;DHT22;4030;52.362;9.206;2022-08-14T09:14:29;29.00;52.40
7970;DHT22;4030;52.362;9.206;2022-08-14T09:16:57;29.10;52.40
7970;DHT22;4030;52.362;9.206;2022-08-14T09:19:25;29.20;52.30
7970;DHT22;4030;52.362;9.206;2022-08-14T09:26:46;29.50;52.00
7970;DHT22;4030;52.362;9.206;2022-08-14T09:29:12;29.60;51.90
7970;DHT22;4030;52.362;9.206;2022-08-14T09:31:47;29.70;51.80
7970;DHT22;4030;52.362;9.206;2022-08-14T09:37:59;29.90;51.30
7970;DHT22;4030;52.362;9.206;2022-08-14T09:40:59;29.90;51.10
7970;DHT22;4030;52.362;9.206;2022-08-14T09:46:08;30.20;50.80
7970;DHT22;4030;52.362;9.206;2022-08-14T09:51:03;30.40;50.50
7970;DHT22;4030;52.362;9.206;2022-08-14T09:53:36;30.60;50.40
7970;DHT22;4030;52.362;9.206;2022-08-14T09:58:45;30.80;50.00
7970;DHT22;4030;52.362;9.206;2022-08-14T10:01:14;30.90;49.80
7970;DHT22;4030;52.362;9.206;2022-08-14T10:03:53;31.00;49.60
7970;DHT22;4030;52.362;9.206;2022-08-14T10:06:22;31.20;49.40
7970;DHT22;4030;52.362;9.206;2022-08-14T10:11:29;31.40;49.10
7970;DHT22;4030;52.362;9.206;2022-08-14T10:14:21;31.50;48.90
7970;DHT22;4030;52.362;9.206;2022-08-14T10:16:56;31.60;48.60
7970;DHT22;4030;52.362;9.206;2022-08-14T10:19:25;31.70;48.40
7970;DHT22;4030;52.362;9.206;2022-08-14T10:22:02;31.80;48.10
7970;DHT22;4030;52.362;9.206;2022-08-14T10:24:39;31.90;47.90
7970;DHT22;4030;52.362;9.206;2022-08-14T10:27:17;32.00;47.70
7970;DHT22;4030;52.362;9.206;2022-08-14T10:29:56;32.20;47.50
7970;DHT22;4030;52.362;9.206;2022-08-14T10:32:26;32.30;47.20
7970;DHT22;4030;52.362;9.206;2022-08-14T10:35:04;32.40;47.10
7970;DHT22;4030;52.362;9.206;2022-08-14T10:37:37;32.60;47.10
7970;DHT22;4030;52.362;9.206;2022-08-14T10:40:06;32.70;46.90
7970;DHT22;4030;52.362;9.206;2022-08-14T10:42:40;32.80;46.60
7970;DHT22;4030;52.362;9.206;2022-08-14T10:45:51;32.90;46.40
7970;DHT22;4030;52.362;9.206;2022-08-14T10:48:18;33.10;46.30
7970;DHT22;4030;52.362;9.206;2022-08-14T10:50:44;33.20;46.10
7970;DHT22;4030;52.362;9.206;2022-08-14T10:53:14;33.30;46.00
7970;DHT22;4030;52.362;9.206;2022-08-14T10:55:40;33.40;45.70
7970;DHT22;4030;52.362;9.206;2022-08-14T10:58:07;33.60;45.60
7970;DHT22;4030;52.362;9.206;2022-08-14T11:00:35;33.60;45.30
7970;DHT22;4030;52.362;9.206;2022-08-14T11:03:09;33.70;45.10
7970;DHT22;4030;52.362;9.206;2022-08-14T11:05:47;33.80;44.90
7970;DHT22;4030;52.362;9.206;2022-08-14T11:08:15;33.80;44.60
7970;DHT22;4030;52.362;9.206;2022-08-14T11:10:45;33.90;44.50
7970;DHT22;4030;52.362;9.206;2022-08-14T11:13:26;34.00;44.40
7970;DHT22;4030;52.362;9.206;2022-08-14T11:15:55;33.90;44.00
7970;DHT22;4030;52.362;9.206;2022-08-14T11:18:27;34.20;44.00
7970;DHT22;4030;52.362;9.206;2022-08-14T11:20:57;34.30;43.90
7970;DHT22;4030;52.362;9.206;2022-08-14T11:23:27;34.40;43.80
7970;DHT22;4030;52.362;9.206;2022-08-14T11:25:57;34.50;43.60
7970;DHT22;4030;52.362;9.206;2022-08-14T11:28:27;34.60;43.40
7970;DHT22;4030;52.362;9.206;2022-08-14T11:30:58;34.70;43.20
7970;DHT22;4030;52.362;9.206;2022-08-14T11:33:27;34.80;42.80
7970;DHT22;4030;52.362;9.206;2022-08-14T11:35:56;34.90;42.70
7970;DHT22;4030;52.362;9.206;2022-08-14T11:38:26;35.10;42.60
7970;DHT22;4030;52.362;9.206;2022-08-14T11:40:55;35.20;42.50
7970;DHT22;4030;52.362;9.206;2022-08-14T11:43:22;35.30;42.30
7970;DHT22;4030;52.362;9.206;2022-08-14T11:45:50;35.40;42.10
7970;DHT22;4030;52.362;9.206;2022-08-14T11:50:46;35.50;41.40
7970;DHT22;4030;52.362;9.206;2022-08-14T11:53:26;35.60;41.10
7970;DHT22;4030;52.362;9.206;2022-08-14T11:56:00;35.60;41.00
7970;DHT22;4030;52.362;9.206;2022-08-14T11:58:29;35.60;40.80
7970;DHT22;4030;52.362;9.206;2022-08-14T12:01:05;35.80;40.90
7970;DHT22;4030;52.362;9.206;2022-08-14T12:03:39;35.90;40.70
7970;DHT22;4030;52.362;9.206;2022-08-14T12:06:07;35.80;40.40
7970;DHT22;4030;52.362;9.206;2022-08-14T12:08:35;35.90;40.40
7970;DHT22;4030;52.362;9.206;2022-08-14T12:11:03;36.00;40.40
7970;DHT22;4030;52.362;9.206;2022-08-14T12:13:31;36.10;40.20
7970;DHT22;4030;52.362;9.206;2022-08-14T12:16:05;36.10;39.90
7970;DHT22;4030;52.362;9.206;2022-08-14T12:18:35;36.10;39.50
7970;DHT22;4030;52.362;9.206;2022-08-14T12:21:19;36.20;39.40
7970;DHT22;4030;52.362;9.206;2022-08-14T12:24:08;36.20;39.10
7970;DHT22;4030;52.362;9.206;2022-08-14T12:26:35;36.20;39.30
7970;DHT22;4030;52.362;9.206;2022-08-14T12:29:14;36.30;39.30
7970;DHT22;4030;52.362;9.206;2022-08-14T12:31:42;36.40;39.30
7970;DHT22;4030;52.362;9.206;2022-08-14T12:34:11;36.50;39.30
7970;DHT22;4030;52.362;9.206;2022-08-14T12:36:38;36.60;39.20
7970;DHT22;4030;52.362;9.206;2022-08-14T12:39:18;36.60;38.90
7970;DHT22;4030;52.362;9.206;2022-08-14T12:41:55;36.60;38.50
7970;DHT22;4030;52.362;9.206;2022-08-14T12:44:35;36.60;38.30
7970;DHT22;4030;52.362;9.206;2022-08-14T12:47:13;36.80;38.30
7970;DHT22;4030;52.362;9.206;2022-08-14T12:49:53;36.60;38.00
7970;DHT22;4030;52.362;9.206;2022-08-14T12:52:33;36.70;38.70
7970;DHT22;4030;52.362;9.206;2022-08-14T12:55:06;36.90;38.10
7970;DHT22;4030;52.362;9.206;2022-08-14T12:57:38;36.90;38.00
7970;DHT22;4030;52.362;9.206;2022-08-14T13:00:15;37.00;38.00
7970;DHT22;4030;52.362;9.206;2022-08-14T13:02:45;37.20;38.10
7970;DHT22;4030;52.362;9.206;2022-08-14T13:05:13;37.20;38.00
7970;DHT22;4030;52.362;9.206;2022-08-14T13:07:39;37.30;37.80
7970;DHT22;4030;52.362;9.206;2022-08-14T13:10:10;37.30;37.70
7970;DHT22;4030;52.362;9.206;2022-08-14T13:12:41;37.40;37.60
7970;DHT22;4030;52.362;9.206;2022-08-14T13:15:09;37.50;37.40
7970;DHT22;4030;52.362;9.206;2022-08-14T13:20:15;37.70;37.10
7970;DHT22;4030;52.362;9.206;2022-08-14T13:22:43;37.80;36.80
7970;DHT22;4030;52.362;9.206;2022-08-14T13:25:16;37.80;36.70
7970;DHT22;4030;52.362;9.206;2022-08-14T13:27:49;37.90;36.40
7970;DHT22;4030;52.362;9.206;2022-08-14T13:30:17;38.00;36.20
7970;DHT22;4030;52.362;9.206;2022-08-14T13:32:45;38.00;36.00
7970;DHT22;4030;52.362;9.206;2022-08-14T13:35:12;38.10;35.90
7970;DHT22;4030;52.362;9.206;2022-08-14T13:37:41;38.20;35.90
7970;DHT22;4030;52.362;9.206;2022-08-14T13:40:10;38.30;35.70
7970;DHT22;4030;52.362;9.206;2022-08-14T13:42:41;38.40;35.60
7970;DHT22;4030;52.362;9.206;2022-08-14T13:45:09;38.50;35.50
7970;DHT22;4030;52.362;9.206;2022-08-14T13:47:35;38.50;35.40
7970;DHT22;4030;52.362;9.206;2022-08-14T13:50:04;38.60;35.30
7970;DHT22;4030;52.362;9.206;2022-08-14T13:52:44;38.70;35.00
7970;DHT22;4030;52.362;9.206;2022-08-14T13:55:29;38.80;34.90
7970;DHT22;4030;52.362;9.206;2022-08-14T13:58:00;38.80;34.70
7970;DHT22;4030;52.362;9.206;2022-08-14T14:00:26;38.90;34.60
7970;DHT22;4030;52.362;9.206;2022-08-14T14:02:52;39.00;34.50
7970;DHT22;4030;52.362;9.206;2022-08-14T14:05:20;39.00;34.30
7970;DHT22;4030;52.362;9.206;2022-08-14T14:07:50;39.10;34.20
7970;DHT22;4030;52.362;9.206;2022-08-14T14:10:20;39.00;33.90
7970;DHT22;4030;52.362;9.206;2022-08-14T14:12:47;39.30;33.90
7970;DHT22;4030;52.362;9.206;2022-08-14T14:15:16;39.30;33.70
7970;DHT22;4030;52.362;9.206;2022-08-14T14:17:44;39.40;33.60
7970;DHT22;4030;52.362;9.206;2022-08-14T14:20:16;39.40;33.40
7970;DHT22;4030;52.362;9.206;2022-08-14T14:22:44;39.50;33.10
7970;DHT22;4030;52.362;9.206;2022-08-14T14:25:13;39.40;32.60
7970;DHT22;4030;52.362;9.206;2022-08-14T14:27:41;39.50;32.50
7970;DHT22;4030;52.362;9.206;2022-08-14T14:30:11;39.40;32.00
7970;DHT22;4030;52.362;9.206;2022-08-14T14:32:39;39.40;31.80
7970;DHT22;4030;52.362;9.206;2022-08-14T14:35:09;39.30;31.70
7970;DHT22;4030;52.362;9.206;2022-08-14T14:37:41;39.30;31.60
7970;DHT22;4030;52.362;9.206;2022-08-14T14:40:09;39.20;31.50
7970;DHT22;4030;52.362;9.206;2022-08-14T14:42:50;39.20;31.50
7970;DHT22;4030;52.362;9.206;2022-08-14T14:45:21;39.20;31.50
7970;DHT22;4030;52.362;9.206;2022-08-14T14:47:49;39.00;31.30
7970;DHT22;4030;52.362;9.206;2022-08-14T14:50:18;39.00;31.40
7970;DHT22;4030;52.362;9.206;2022-08-14T14:52:46;38.90;31.40
7970;DHT22;4030;52.362;9.206;2022-08-14T14:55:14;38.90;31.40
7970;DHT22;4030;52.362;9.206;2022-08-14T14:57:41;38.80;31.40
7970;DHT22;4030;52.362;9.206;2022-08-14T15:00:13;38.70;31.40
7970;DHT22;4030;52.362;9.206;2022-08-14T15:02:43;38.80;31.60
7970;DHT22;4030;52.362;9.206;2022-08-14T15:05:12;38.70;31.70
7970;DHT22;4030;52.362;9.206;2022-08-14T15:07:39;38.70;31.80
7970;DHT22;4030;52.362;9.206;2022-08-14T15:10:07;38.70;31.90
7970;DHT22;4030;52.362;9.206;2022-08-14T15:12:34;38.60;31.80
7970;DHT22;4030;52.362;9.206;2022-08-14T15:15:00;38.60;31.80
7970;DHT22;4030;52.362;9.206;2022-08-14T15:17:26;38.50;31.80
7970;DHT22;4030;52.362;9.206;2022-08-14T15:19:57;38.60;31.90
7970;DHT22;4030;52.362;9.206;2022-08-14T15:22:23;38.50;32.00
7970;DHT22;4030;52.362;9.206;2022-08-14T15:24:49;38.50;32.00
7970;DHT22;4030;52.362;9.206;2022-08-14T15:27:15;38.40;32.00
7970;DHT22;4030;52.362;9.206;2022-08-14T15:29:40;38.40;32.00
7970;DHT22;4030;52.362;9.206;2022-08-14T15:32:07;38.40;32.00
7970;DHT22;4030;52.362;9.206;2022-08-14T15:34:34;38.40;32.00
7970;DHT22;4030;52.362;9.206;2022-08-14T15:37:04;38.30;31.90
7970;DHT22;4030;52.362;9.206;2022-08-14T15:39:31;38.30;31.90
7970;DHT22;4030;52.362;9.206;2022-08-14T15:41:58;38.30;32.00
7970;DHT22;4030;52.362;9.206;2022-08-14T15:44:26;38.20;32.00
7970;DHT22;4030;52.362;9.206;2022-08-14T15:46:54;38.20;32.00
7970;DHT22;4030;52.362;9.206;2022-08-14T15:49:21;38.30;32.10
7970;DHT22;4030;52.362;9.206;2022-08-14T15:51:52;38.20;32.10
7970;DHT22;4030;52.362;9.206;2022-08-14T15:54:22;38.10;32.00
7970;DHT22;4030;52.362;9.206;2022-08-14T15:56:56;38.10;32.00
7970;DHT22;4030;52.362;9.206;2022-08-14T15:59:23;38.10;32.00
7970;DHT22;4030;52.362;9.206;2022-08-14T16:01:49;38.00;31.90
7970;DHT22;4030;52.362;9.206;2022-08-14T16:04:17;38.00;31.90
7970;DHT22;4030;52.362;9.206;2022-08-14T16:06:48;38.00;31.90
7970;DHT22;4030;52.362;9.206;2022-08-14T16:11:41;37.90;31.90
7970;DHT22;4030;52.362;9.206;2022-08-14T16:16:33;37.80;31.90
7970;DHT22;4030;52.362;9.206;2022-08-14T16:19:02;37.80;31.90
7970;DHT22;4030;52.362;9.206;2022-08-14T16:23:59;37.60;31.80
7970;DHT22;4030;52.362;9.206;2022-08-14T16:26:24;37.60;31.80
7970;DHT22;4030;52.362;9.206;2022-08-14T16:28:56;37.60;31.80
7970;DHT22;4030;52.362;9.206;2022-08-14T16:31:27;37.60;31.90
7970;DHT22;4030;52.362;9.206;2022-08-14T16:33:53;37.50;31.80
7970;DHT22;4030;52.362;9.206;2022-08-14T16:36:20;37.50;31.80
7970;DHT22;4030;52.362;9.206;2022-08-14T16:38:57;37.40;31.70
7970;DHT22;4030;52.362;9.206;2022-08-14T16:41:24;37.40;31.70
7970;DHT22;4030;52.362;9.206;2022-08-14T16:46:22;37.30;31.50
7970;DHT22;4030;52.362;9.206;2022-08-14T16:48:48;37.20;31.50
7970;DHT22;4030;52.362;9.206;2022-08-14T16:51:16;37.20;31.50
7970;DHT22;4030;52.362;9.206;2022-08-14T16:53:44;37.20;31.60
7970;DHT22;4030;52.362;9.206;2022-08-14T16:58:44;37.00;31.50
7970;DHT22;4030;52.362;9.206;2022-08-14T17:01:19;36.90;31.50
7970;DHT22;4030;52.362;9.206;2022-08-14T17:03:57;36.90;31.50
7970;DHT22;4030;52.362;9.206;2022-08-14T17:06:54;36.80;31.50
7970;DHT22;4030;52.362;9.206;2022-08-14T17:09:28;36.70;31.60
7970;DHT22;4030;52.362;9.206;2022-08-14T17:12:05;36.70;31.70
7970;DHT22;4030;52.362;9.206;2022-08-14T17:15:09;36.70;31.90
7970;DHT22;4030;52.362;9.206;2022-08-14T17:20:09;36.50;31.90
7970;DHT22;4030;52.362;9.206;2022-08-14T17:25:21;36.20;31.90
7970;DHT22;4030;52.362;9.206;2022-08-14T17:30:55;36.20;32.10
7970;DHT22;4030;52.362;9.206;2022-08-14T17:36:11;36.20;32.20
7970;DHT22;4030;52.362;9.206;2022-08-14T17:39:15;36.10;32.10
7970;DHT22;4030;52.362;9.206;2022-08-14T17:41:50;36.00;32.10
7970;DHT22;4030;52.362;9.206;2022-08-14T17:44:31;36.00;32.20
7970;DHT22;4030;52.362;9.206;2022-08-14T17:47:02;35.90;32.20
7970;DHT22;4030;52.362;9.206;2022-08-14T17:49:31;35.80;32.30
7970;DHT22;4030;52.362;9.206;2022-08-14T17:52:10;35.80;32.30
7970;DHT22;4030;52.362;9.206;2022-08-14T17:54:42;35.70;32.40
7970;DHT22;4030;52.362;9.206;2022-08-14T17:57:15;35.60;32.40
7970;DHT22;4030;52.362;9.206;2022-08-14T17:59:44;35.60;32.40
7970;DHT22;4030;52.362;9.206;2022-08-14T18:02:16;35.50;32.50
7970;DHT22;4030;52.362;9.206;2022-08-14T18:04:45;35.50;32.50
7970;DHT22;4030;52.362;9.206;2022-08-14T18:07:14;35.40;32.60
7970;DHT22;4030;52.362;9.206;2022-08-14T18:09:46;35.40;32.70
7970;DHT22;4030;52.362;9.206;2022-08-14T18:12:16;35.30;32.70
7970;DHT22;4030;52.362;9.206;2022-08-14T18:14:44;35.30;32.80
7970;DHT22;4030;52.362;9.206;2022-08-14T18:17:10;35.20;32.80
7970;DHT22;4030;52.362;9.206;2022-08-14T18:19:37;35.20;32.90
7970;DHT22;4030;52.362;9.206;2022-08-14T18:22:09;35.10;32.90
7970;DHT22;4030;52.362;9.206;2022-08-14T18:24:37;35.00;32.90